sensor_id;sensor_type;location;lat;lon;timestamp;temperature;humidity
46378;DHT22;32083;47.360;9.650;2024-01-30T00:02:52;-0.10;99.90
46378;DHT22;32083;47.360;9.650;2024-01-30T00:11:19;-0.30;99.90
46378;DHT22;32083;47.360;9.650;2024-01-30T00:23:15;-0.40;99.90
46378;DHT22;32083;47.360;9.650;2024-01-30T00:25:59;-0.30;99.90
46378;DHT22;32083;47.360;9.650;2024-01-30T00:29:01;-0.40;99.90
46378;DHT22;32083;47.360;9.650;2024-01-30T00:41:06;-0.50;99.90
46378;DHT22;32083;47.360;9.650;2024-01-30T00:47:22;-0.40;99.90
46378;DHT22;32083;47.360;9.650;2024-01-30T00:50:10;-0.30;99.90
46378;DHT22;32083;47.360;9.650;2024-01-30T00:56:50;-0.50;99.90
46378;DHT22;32083;47.360;9.650;2024-01-30T01:00:02;-0.60;99.90
46378;DHT22;32083;47.360;9.650;2024-01-30T01:02:53;-0.60;99.90
46378;DHT22;32083;47.360;9.650;2024-01-30T01:05:39;-0.60;99.90
46378;DHT22;32083;47.360;9.650;2024-01-30T01:08:37;-0.60;99.90
46378;DHT22;32083;47.360;9.650;2024-01-30T01:18:07;-0.50;99.90
46378;DHT22;32083;47.360;9.650;2024-01-30T01:20:55;-0.50;99.90
46378;DHT22;32083;47.360;9.650;2024-01-30T01:24:03;-0.50;99.90
46378;DHT22;32083;47.360;9.650;2024-01-30T01:30:13;-0.50;99.90
46378;DHT22;32083;47.360;9.650;2024-01-30T01:33:13;-0.50;99.90
46378;DHT22;32083;47.360;9.650;2024-01-30T01:39:22;-0.60;99.90
46378;DHT22;32083;47.360;9.650;2024-01-30T01:42:28;-0.50;99.90
46378;DHT22;32083;47.360;9.650;2024-01-30T01:45:11;-0.50;99.90
46378;DHT22;32083;47.360;9.650;2024-01-30T01:51:05;-0.60;99.90
46378;DHT22;32083;47.360;9.650;2024-01-30T01:54:31;-0.50;99.90
46378;DHT22;32083;47.360;9.650;2024-01-30T02:00:42;-0.70;99.90
46378;DHT22;32083;47.360;9.650;2024-01-30T02:03:50;-0.70;99.90
46378;DHT22;32083;47.360;9.650;2024-01-30T02:07:08;-0.80;99.90
46378;DHT22;32083;47.360;9.650;2024-01-30T02:10:08;-0.80;99.90
46378;DHT22;32083;47.360;9.650;2024-01-30T02:13:02;-0.80;99.90
46378;DHT22;32083;47.360;9.650;2024-01-30T02:19:09;-0.60;99.90
46378;DHT22;32083;47.360;9.650;2024-01-30T02:22:00;-0.50;99.90
46378;DHT22;32083;47.360;9.650;2024-01-30T02:28:31;-0.50;99.90
46378;DHT22;32083;47.360;9.650;2024-01-30T02:35:29;-0.50;99.90
46378;DHT22;32083;47.360;9.650;2024-01-30T02:38:23;-0.50;99.90
46378;DHT22;32083;47.360;9.650;2024-01-30T02:41:29;-0.50;99.90
46378;DHT22;32083;47.360;9.650;2024-01-30T02:44:42;-0.60;99.90
46378;DHT22;32083;47.360;9.650;2024-01-30T02:50:53;-0.60;99.90
46378;DHT22;32083;47.360;9.650;2024-01-30T02:53:38;-0.50;99.90
46378;DHT22;32083;47.360;9.650;2024-01-30T02:56:24;-0.50;99.90
46378;DHT22;32083;47.360;9.650;2024-01-30T03:10:30;-0.50;99.90
46378;DHT22;32083;47.360;9.650;2024-01-30T03:13:29;-0.50;99.90
46378;DHT22;32083;47.360;9.650;2024-01-30T03:22:59;-0.60;99.90
46378;DHT22;32083;47.360;9.650;2024-01-30T03:26:04;-0.60;99.90
46378;DHT22;32083;47.360;9.650;2024-01-30T03:29:03;-0.60;99.90
46378;DHT22;32083;47.360;9.650;2024-01-30T03:35:06;-0.70;99.90
46378;DHT22;32083;47.360;9.650;2024-01-30T03:38:06;-0.70;99.90
46378;DHT22;32083;47.360;9.650;2024-01-30T03:47:38;-0.50;99.90
46378;DHT22;32083;47.360;9.650;2024-01-30T03:57:16;-0.50;99.90
46378;DHT22;32083;47.360;9.650;2024-01-30T04:00:33;-0.50;99.90
46378;DHT22;32083;47.360;9.650;2024-01-30T04:03:12;-0.50;99.90
46378;DHT22;32083;47.360;9.650;2024-01-30T04:06:30;-0.50;99.90
46378;DHT22;32083;47.360;9.650;2024-01-30T04:09:33;-0.50;99.90
46378;DHT22;32083;47.360;9.650;2024-01-30T04:19:10;-0.60;99.90
46378;DHT22;32083;47.360;9.650;2024-01-30T04:21:39;-0.60;99.90
46378;DHT22;32083;47.360;9.650;2024-01-30T04:25:04;-0.60;99.90
46378;DHT22;32083;47.360;9.650;2024-01-30T04:30:43;-0.60;99.90
46378;DHT22;32083;47.360;9.650;2024-01-30T04:33:25;-0.60;99.90
46378;DHT22;32083;47.360;9.650;2024-01-30T04:36:16;-0.60;99.90
46378;DHT22;32083;47.360;9.650;2024-01-30T04:38:44;-0.60;99.90
46378;DHT22;32083;47.360;9.650;2024-01-30T04:45:11;-0.60;99.90
46378;DHT22;32083;47.360;9.650;2024-01-30T04:48:09;-0.60;99.90
46378;DHT22;32083;47.360;9.650;2024-01-30T05:09:50;-0.80;99.90
46378;DHT22;32083;47.360;9.650;2024-01-30T05:12:42;-0.70;99.90
46378;DHT22;32083;47.360;9.650;2024-01-30T05:15:46;-0.80;99.90
46378;DHT22;32083;47.360;9.650;2024-01-30T05:18:34;-0.80;99.90
46378;DHT22;32083;47.360;9.650;2024-01-30T05:21:39;-0.80;99.90
46378;DHT22;32083;47.360;9.650;2024-01-30T05:34:55;-0.90;99.90
46378;DHT22;32083;47.360;9.650;2024-01-30T05:37:59;-1.00;99.90
46378;DHT22;32083;47.360;9.650;2024-01-30T05:43:54;-1.30;99.90
46378;DHT22;32083;47.360;9.650;2024-01-30T05:50:20;-1.40;99.90
46378;DHT22;32083;47.360;9.650;2024-01-30T05:53:02;-1.40;99.90
46378;DHT22;32083;47.360;9.650;2024-01-30T05:59:23;-1.50;99.90
46378;DHT22;32083;47.360;9.650;2024-01-30T06:11:31;-1.40;99.90
46378;DHT22;32083;47.360;9.650;2024-01-30T06:13:57;-1.30;99.90
46378;DHT22;32083;47.360;9.650;2024-01-30T06:16:23;-1.30;99.90
46378;DHT22;32083;47.360;9.650;2024-01-30T06:18:49;-1.30;99.90
46378;DHT22;32083;47.360;9.650;2024-01-30T06:21:15;-1.30;99.90
46378;DHT22;32083;47.360;9.650;2024-01-30T06:23:41;-1.40;99.90
46378;DHT22;32083;47.360;9.650;2024-01-30T06:26:07;-1.30;99.90
46378;DHT22;32083;47.360;9.650;2024-01-30T06:28:33;-1.30;99.90
46378;DHT22;32083;47.360;9.650;2024-01-30T06:31:01;-1.30;99.90
46378;DHT22;32083;47.360;9.650;2024-01-30T06:33:27;-1.20;99.90
46378;DHT22;32083;47.360;9.650;2024-01-30T06:35:53;-1.10;99.90
46378;DHT22;32083;47.360;9.650;2024-01-30T06:38:19;-1.10;99.90
46378;DHT22;32083;47.360;9.650;2024-01-30T06:40:45;-1.20;99.90
46378;DHT22;32083;47.360;9.650;2024-01-30T06:43:11;-1.30;99.90
46378;DHT22;32083;47.360;9.650;2024-01-30T06:45:37;-1.30;99.90
46378;DHT22;32083;47.360;9.650;2024-01-30T06:48:03;-1.30;99.90
46378;DHT22;32083;47.360;9.650;2024-01-30T06:50:30;-1.40;99.90
46378;DHT22;32083;47.360;9.650;2024-01-30T06:52:56;-1.50;99.90
46378;DHT22;32083;47.360;9.650;2024-01-30T06:55:22;-1.60;99.90
46378;DHT22;32083;47.360;9.650;2024-01-30T06:57:48;-1.60;99.90
46378;DHT22;32083;47.360;9.650;2024-01-30T07:00:14;-1.70;99.90
46378;DHT22;32083;47.360;9.650;2024-01-30T07:02:41;-1.70;99.90
46378;DHT22;32083;47.360;9.650;2024-01-30T07:05:07;-1.60;99.90
46378;DHT22;32083;47.360;9.650;2024-01-30T07:07:33;-1.50;99.90
46378;DHT22;32083;47.360;9.650;2024-01-30T07:09:59;-1.50;99.90
46378;DHT22;32083;47.360;9.650;2024-01-30T07:12:25;-1.50;99.90
46378;DHT22;32083;47.360;9.650;2024-01-30T07:14:52;-1.30;99.90
46378;DHT22;32083;47.360;9.650;2024-01-30T07:17:18;-1.30;99.90
46378;DHT22;32083;47.360;9.650;2024-01-30T07:19:44;-1.30;99.90
46378;DHT22;32083;47.360;9.650;2024-01-30T07:22:10;-1.30;99.90
46378;DHT22;32083;47.360;9.650;2024-01-30T07:24:36;-1.20;99.90
46378;DHT22;32083;47.360;9.650;2024-01-30T07:27:02;-1.20;99.90
46378;DHT22;32083;47.360;9.650;2024-01-30T07:29:28;-1.20;99.90
46378;DHT22;32083;47.360;9.650;2024-01-30T07:31:54;-1.20;99.90
46378;DHT22;32083;47.360;9.650;2024-01-30T07:34:20;-1.20;99.90
46378;DHT22;32083;47.360;9.650;2024-01-30T07:36:46;-1.30;99.90
46378;DHT22;32083;47.360;9.650;2024-01-30T07:39:12;-1.20;99.90
46378;DHT22;32083;47.360;9.650;2024-01-30T07:41:38;-1.20;99.90
46378;DHT22;32083;47.360;9.650;2024-01-30T07:44:04;-1.10;99.90
46378;DHT22;32083;47.360;9.650;2024-01-30T07:46:30;-1.10;99.90
46378;DHT22;32083;47.360;9.650;2024-01-30T07:48:56;-1.20;99.90
46378;DHT22;32083;47.360;9.650;2024-01-30T07:51:23;-1.20;99.90
46378;DHT22;32083;47.360;9.650;2024-01-30T07:53:49;-1.30;99.90
46378;DHT22;32083;47.360;9.650;2024-01-30T07:56:15;-1.30;99.90
46378;DHT22;32083;47.360;9.650;2024-01-30T07:58:42;-1.30;99.90
46378;DHT22;32083;47.360;9.650;2024-01-30T08:01:08;-1.40;99.90
46378;DHT22;32083;47.360;9.650;2024-01-30T08:03:34;-1.20;99.90
46378;DHT22;32083;47.360;9.650;2024-01-30T08:06:00;-1.10;99.90
46378;DHT22;32083;47.360;9.650;2024-01-30T08:08:26;-1.00;99.90
46378;DHT22;32083;47.360;9.650;2024-01-30T08:10:52;-1.10;99.90
46378;DHT22;32083;47.360;9.650;2024-01-30T08:13:18;-1.10;99.90
46378;DHT22;32083;47.360;9.650;2024-01-30T08:15:44;-1.00;99.90
46378;DHT22;32083;47.360;9.650;2024-01-30T08:18:10;-1.00;99.90
46378;DHT22;32083;47.360;9.650;2024-01-30T08:20:36;-0.90;99.90
46378;DHT22;32083;47.360;9.650;2024-01-30T08:23:03;-0.80;99.90
46378;DHT22;32083;47.360;9.650;2024-01-30T08:25:29;-0.80;99.90
46378;DHT22;32083;47.360;9.650;2024-01-30T08:27:55;-0.90;99.90
46378;DHT22;32083;47.360;9.650;2024-01-30T08:30:22;-0.90;99.90
46378;DHT22;32083;47.360;9.650;2024-01-30T08:32:48;-0.80;99.90
46378;DHT22;32083;47.360;9.650;2024-01-30T08:35:15;-0.70;99.90
46378;DHT22;32083;47.360;9.650;2024-01-30T08:37:41;-0.60;99.90
46378;DHT22;32083;47.360;9.650;2024-01-30T08:40:08;-0.60;99.90
46378;DHT22;32083;47.360;9.650;2024-01-30T08:42:34;-0.40;99.90
46378;DHT22;32083;47.360;9.650;2024-01-30T08:45:00;-0.30;99.90
46378;DHT22;32083;47.360;9.650;2024-01-30T08:47:26;-0.30;99.90
46378;DHT22;32083;47.360;9.650;2024-01-30T08:49:52;-0.20;99.90
46378;DHT22;32083;47.360;9.650;2024-01-30T08:52:18;-0.10;99.90
46378;DHT22;32083;47.360;9.650;2024-01-30T08:54:44;0.00;99.90
46378;DHT22;32083;47.360;9.650;2024-01-30T08:57:11;0.00;99.90
46378;DHT22;32083;47.360;9.650;2024-01-30T08:59:37;-0.10;99.90
46378;DHT22;32083;47.360;9.650;2024-01-30T09:02:03;-0.10;99.90
46378;DHT22;32083;47.360;9.650;2024-01-30T09:04:30;-0.10;99.90
46378;DHT22;32083;47.360;9.650;2024-01-30T09:06:56;-0.10;99.90
46378;DHT22;32083;47.360;9.650;2024-01-30T09:09:22;-0.20;99.90
46378;DHT22;32083;47.360;9.650;2024-01-30T09:11:48;-0.10;99.90
46378;DHT22;32083;47.360;9.650;2024-01-30T09:14:14;-0.10;99.90
46378;DHT22;32083;47.360;9.650;2024-01-30T09:16:40;-0.10;99.90
46378;DHT22;32083;47.360;9.650;2024-01-30T09:19:06;0.00;99.90
46378;DHT22;32083;47.360;9.650;2024-01-30T09:21:32;0.10;99.90
46378;DHT22;32083;47.360;9.650;2024-01-30T09:24:02;0.20;99.90
46378;DHT22;32083;47.360;9.650;2024-01-30T09:26:31;0.20;99.90
46378;DHT22;32083;47.360;9.650;2024-01-30T09:28:57;0.30;99.90
46378;DHT22;32083;47.360;9.650;2024-01-30T09:31:23;0.40;99.90
46378;DHT22;32083;47.360;9.650;2024-01-30T09:33:49;0.40;99.90
46378;DHT22;32083;47.360;9.650;2024-01-30T09:36:16;0.40;99.90
46378;DHT22;32083;47.360;9.650;2024-01-30T09:38:45;0.30;99.90
46378;DHT22;32083;47.360;9.650;2024-01-30T09:41:11;0.40;99.90
46378;DHT22;32083;47.360;9.650;2024-01-30T09:43:39;0.40;99.90
46378;DHT22;32083;47.360;9.650;2024-01-30T09:46:12;0.40;99.90
46378;DHT22;32083;47.360;9.650;2024-01-30T09:48:41;0.40;99.90
46378;DHT22;32083;47.360;9.650;2024-01-30T09:51:09;0.40;99.90
46378;DHT22;32083;47.360;9.650;2024-01-30T09:53:36;0.40;99.90
46378;DHT22;32083;47.360;9.650;2024-01-30T09:56:03;0.60;99.90
46378;DHT22;32083;47.360;9.650;2024-01-30T09:58:30;0.50;99.90
46378;DHT22;32083;47.360;9.650;2024-01-30T10:00:56;0.60;99.90
46378;DHT22;32083;47.360;9.650;2024-01-30T10:03:22;0.50;99.90
46378;DHT22;32083;47.360;9.650;2024-01-30T10:05:51;0.60;99.90
46378;DHT22;32083;47.360;9.650;2024-01-30T10:08:21;0.60;99.90
46378;DHT22;32083;47.360;9.650;2024-01-30T10:10:47;0.60;99.90
46378;DHT22;32083;47.360;9.650;2024-01-30T10:13:14;0.60;99.90
46378;DHT22;32083;47.360;9.650;2024-01-30T10:15:40;0.60;99.90
46378;DHT22;32083;47.360;9.650;2024-01-30T10:18:08;0.80;99.90
46378;DHT22;32083;47.360;9.650;2024-01-30T10:20:36;0.90;99.90
46378;DHT22;32083;47.360;9.650;2024-01-30T10:23:03;0.90;99.90
46378;DHT22;32083;47.360;9.650;2024-01-30T10:25:32;1.10;99.90
46378;DHT22;32083;47.360;9.650;2024-01-30T10:27:59;1.20;99.90
46378;DHT22;32083;47.360;9.650;2024-01-30T10:30:26;1.30;99.90
46378;DHT22;32083;47.360;9.650;2024-01-30T10:32:53;1.30;99.90
46378;DHT22;32083;47.360;9.650;2024-01-30T10:35:19;1.50;99.90
46378;DHT22;32083;47.360;9.650;2024-01-30T10:37:48;1.60;99.90
46378;DHT22;32083;47.360;9.650;2024-01-30T10:40:15;1.70;99.90
46378;DHT22;32083;47.360;9.650;2024-01-30T10:42:45;1.80;99.90
46378;DHT22;32083;47.360;9.650;2024-01-30T10:45:12;1.90;99.90
46378;DHT22;32083;47.360;9.650;2024-01-30T10:47:40;1.80;99.90
46378;DHT22;32083;47.360;9.650;2024-01-30T10:50:08;1.90;99.90
46378;DHT22;32083;47.360;9.650;2024-01-30T10:52:36;1.90;99.90
46378;DHT22;32083;47.360;9.650;2024-01-30T10:55:04;2.00;99.90
46378;DHT22;32083;47.360;9.650;2024-01-30T10:57:37;2.00;99.90
46378;DHT22;32083;47.360;9.650;2024-01-30T11:00:06;2.10;99.90
46378;DHT22;32083;47.360;9.650;2024-01-30T11:02:40;2.10;99.90
46378;DHT22;32083;47.360;9.650;2024-01-30T11:05:07;2.20;99.90
46378;DHT22;32083;47.360;9.650;2024-01-30T11:07:34;2.20;99.90
46378;DHT22;32083;47.360;9.650;2024-01-30T11:10:00;2.10;99.90
46378;DHT22;32083;47.360;9.650;2024-01-30T11:12:28;2.20;99.90
46378;DHT22;32083;47.360;9.650;2024-01-30T11:15:17;2.20;99.90
46378;DHT22;32083;47.360;9.650;2024-01-30T11:17:47;2.20;99.90
46378;DHT22;32083;47.360;9.650;2024-01-30T11:20:19;2.20;99.90
46378;DHT22;32083;47.360;9.650;2024-01-30T11:22:46;2.40;99.90
46378;DHT22;32083;47.360;9.650;2024-01-30T11:25:17;2.30;99.90
46378;DHT22;32083;47.360;9.650;2024-01-30T11:27:44;2.40;99.90
46378;DHT22;32083;47.360;9.650;2024-01-30T11:33:02;2.50;99.90
46378;DHT22;32083;47.360;9.650;2024-01-30T11:35:38;2.50;99.90
46378;DHT22;32083;47.360;9.650;2024-01-30T11:38:05;2.50;99.90
46378;DHT22;32083;47.360;9.650;2024-01-30T11:40:32;2.50;99.90
46378;DHT22;32083;47.360;9.650;2024-01-30T11:43:00;2.50;99.90
46378;DHT22;32083;47.360;9.650;2024-01-30T11:45:27;2.60;99.90
46378;DHT22;32083;47.360;9.650;2024-01-30T11:47:54;2.70;99.90
46378;DHT22;32083;47.360;9.650;2024-01-30T11:50:20;2.70;99.90
46378;DHT22;32083;47.360;9.650;2024-01-30T11:52:48;2.70;99.90
46378;DHT22;32083;47.360;9.650;2024-01-30T11:55:15;2.80;99.90
46378;DHT22;32083;47.360;9.650;2024-01-30T11:57:41;2.90;99.90
46378;DHT22;32083;47.360;9.650;2024-01-30T12:00:15;2.90;99.90
46378;DHT22;32083;47.360;9.650;2024-01-30T12:02:42;3.00;99.90
46378;DHT22;32083;47.360;9.650;2024-01-30T12:05:09;3.00;99.90
46378;DHT22;32083;47.360;9.650;2024-01-30T12:07:36;3.00;99.90
46378;DHT22;32083;47.360;9.650;2024-01-30T12:10:02;3.10;99.90
46378;DHT22;32083;47.360;9.650;2024-01-30T12:12:29;3.20;99.90
46378;DHT22;32083;47.360;9.650;2024-01-30T12:14:56;3.30;99.90
46378;DHT22;32083;47.360;9.650;2024-01-30T12:17:33;3.30;99.90
46378;DHT22;32083;47.360;9.650;2024-01-30T12:22:38;3.50;99.90
46378;DHT22;32083;47.360;9.650;2024-01-30T12:25:08;3.40;99.90
46378;DHT22;32083;47.360;9.650;2024-01-30T12:27:35;3.60;99.90
46378;DHT22;32083;47.360;9.650;2024-01-30T12:30:11;3.60;99.90
46378;DHT22;32083;47.360;9.650;2024-01-30T12:32:41;3.60;99.90
46378;DHT22;32083;47.360;9.650;2024-01-30T12:35:16;3.60;99.90
46378;DHT22;32083;47.360;9.650;2024-01-30T12:37:46;3.60;99.90
46378;DHT22;32083;47.360;9.650;2024-01-30T12:40:14;3.60;99.90
46378;DHT22;32083;47.360;9.650;2024-01-30T12:42:41;3.70;99.90
46378;DHT22;32083;47.360;9.650;2024-01-30T12:45:13;3.90;99.90
46378;DHT22;32083;47.360;9.650;2024-01-30T12:47:40;3.80;99.90
46378;DHT22;32083;47.360;9.650;2024-01-30T12:50:07;3.90;99.90
46378;DHT22;32083;47.360;9.650;2024-01-30T12:52:33;4.00;99.90
46378;DHT22;32083;47.360;9.650;2024-01-30T12:54:59;4.10;99.90
46378;DHT22;32083;47.360;9.650;2024-01-30T12:57:25;4.20;99.90
46378;DHT22;32083;47.360;9.650;2024-01-30T12:59:51;4.30;99.90
46378;DHT22;32083;47.360;9.650;2024-01-30T13:02:17;4.40;99.90
46378;DHT22;32083;47.360;9.650;2024-01-30T13:04:44;4.40;99.90
46378;DHT22;32083;47.360;9.650;2024-01-30T13:07:10;4.50;99.90
46378;DHT22;32083;47.360;9.650;2024-01-30T13:09:36;4.50;99.90
46378;DHT22;32083;47.360;9.650;2024-01-30T13:12:04;4.50;99.90
46378;DHT22;32083;47.360;9.650;2024-01-30T13:14:30;4.50;99.90
46378;DHT22;32083;47.360;9.650;2024-01-30T13:16:56;4.50;99.90
46378;DHT22;32083;47.360;9.650;2024-01-30T13:19:22;4.60;99.90
46378;DHT22;32083;47.360;9.650;2024-01-30T13:21:48;4.60;99.90
46378;DHT22;32083;47.360;9.650;2024-01-30T13:24:14;4.70;99.90
46378;DHT22;32083;47.360;9.650;2024-01-30T13:26:42;4.70;99.90
46378;DHT22;32083;47.360;9.650;2024-01-30T13:29:08;4.70;99.90
46378;DHT22;32083;47.360;9.650;2024-01-30T13:31:34;4.70;99.90
46378;DHT22;32083;47.360;9.650;2024-01-30T13:34:00;4.80;99.90
46378;DHT22;32083;47.360;9.650;2024-01-30T13:36:26;4.80;99.90
46378;DHT22;32083;47.360;9.650;2024-01-30T13:38:52;4.80;99.90
46378;DHT22;32083;47.360;9.650;2024-01-30T13:41:18;4.80;99.90
46378;DHT22;32083;47.360;9.650;2024-01-30T13:43:45;4.80;99.90
46378;DHT22;32083;47.360;9.650;2024-01-30T13:46:11;4.80;99.90
46378;DHT22;32083;47.360;9.650;2024-01-30T13:48:37;4.80;99.90
46378;DHT22;32083;47.360;9.650;2024-01-30T13:51:03;4.80;99.90
46378;DHT22;32083;47.360;9.650;2024-01-30T13:53:29;4.90;99.90
46378;DHT22;32083;47.360;9.650;2024-01-30T13:55:55;5.00;99.90
46378;DHT22;32083;47.360;9.650;2024-01-30T13:58:21;5.00;99.90
46378;DHT22;32083;47.360;9.650;2024-01-30T14:00:47;5.10;99.90
46378;DHT22;32083;47.360;9.650;2024-01-30T14:03:14;5.20;99.90
46378;DHT22;32083;47.360;9.650;2024-01-30T14:05:40;5.20;99.90
46378;DHT22;32083;47.360;9.650;2024-01-30T14:08:06;5.30;99.90
46378;DHT22;32083;47.360;9.650;2024-01-30T14:10:34;5.40;99.90
46378;DHT22;32083;47.360;9.650;2024-01-30T14:13:00;5.50;99.90
46378;DHT22;32083;47.360;9.650;2024-01-30T14:15:26;5.60;99.90
46378;DHT22;32083;47.360;9.650;2024-01-30T14:17:52;5.70;99.90
46378;DHT22;32083;47.360;9.650;2024-01-30T14:20:18;5.70;99.90
46378;DHT22;32083;47.360;9.650;2024-01-30T14:22:45;5.70;99.90
46378;DHT22;32083;47.360;9.650;2024-01-30T14:25:11;5.70;99.90
46378;DHT22;32083;47.360;9.650;2024-01-30T14:27:37;5.80;99.90
46378;DHT22;32083;47.360;9.650;2024-01-30T14:30:04;5.80;99.90
46378;DHT22;32083;47.360;9.650;2024-01-30T14:32:30;5.90;99.90
46378;DHT22;32083;47.360;9.650;2024-01-30T14:34:56;5.90;99.90
46378;DHT22;32083;47.360;9.650;2024-01-30T14:37:22;6.00;99.90
46378;DHT22;32083;47.360;9.650;2024-01-30T14:39:49;6.00;99.90
46378;DHT22;32083;47.360;9.650;2024-01-30T14:42:15;6.00;99.90
46378;DHT22;32083;47.360;9.650;2024-01-30T14:44:42;6.00;99.90
46378;DHT22;32083;47.360;9.650;2024-01-30T14:47:08;6.00;99.90
46378;DHT22;32083;47.360;9.650;2024-01-30T14:49:34;6.00;99.90
46378;DHT22;32083;47.360;9.650;2024-01-30T14:52:00;6.00;99.90
46378;DHT22;32083;47.360;9.650;2024-01-30T14:54:27;6.10;99.90
46378;DHT22;32083;47.360;9.650;2024-01-30T14:56:53;6.10;99.90
46378;DHT22;32083;47.360;9.650;2024-01-30T14:59:20;6.10;99.90
46378;DHT22;32083;47.360;9.650;2024-01-30T15:01:46;6.20;99.90
46378;DHT22;32083;47.360;9.650;2024-01-30T15:04:14;6.20;99.90
46378;DHT22;32083;47.360;9.650;2024-01-30T15:06:40;6.20;99.90
46378;DHT22;32083;47.360;9.650;2024-01-30T15:09:14;6.20;99.90
46378;DHT22;32083;47.360;9.650;2024-01-30T15:11:42;6.30;99.90
46378;DHT22;32083;47.360;9.650;2024-01-30T15:14:08;6.30;99.90
46378;DHT22;32083;47.360;9.650;2024-01-30T15:16:34;6.30;99.90
46378;DHT22;32083;47.360;9.650;2024-01-30T15:19:01;6.20;99.90
46378;DHT22;32083;47.360;9.650;2024-01-30T15:21:28;6.20;99.90
46378;DHT22;32083;47.360;9.650;2024-01-30T15:23:54;6.10;99.90
46378;DHT22;32083;47.360;9.650;2024-01-30T15:26:21;6.10;99.90
46378;DHT22;32083;47.360;9.650;2024-01-30T15:28:47;6.00;99.90
46378;DHT22;32083;47.360;9.650;2024-01-30T15:31:13;6.00;99.90
46378;DHT22;32083;47.360;9.650;2024-01-30T15:33:39;6.00;99.90
46378;DHT22;32083;47.360;9.650;2024-01-30T15:36:06;5.90;99.90
46378;DHT22;32083;47.360;9.650;2024-01-30T15:38:32;5.90;99.90
46378;DHT22;32083;47.360;9.650;2024-01-30T15:40:58;5.80;99.90
46378;DHT22;32083;47.360;9.650;2024-01-30T15:43:24;5.70;99.90
46378;DHT22;32083;47.360;9.650;2024-01-30T15:45:50;5.70;99.90
46378;DHT22;32083;47.360;9.650;2024-01-30T15:48:18;5.60;99.90
46378;DHT22;32083;47.360;9.650;2024-01-30T15:50:44;5.60;99.90
46378;DHT22;32083;47.360;9.650;2024-01-30T15:53:10;5.60;99.90
46378;DHT22;32083;47.360;9.650;2024-01-30T15:55:37;5.60;99.90
46378;DHT22;32083;47.360;9.650;2024-01-30T15:58:04;5.50;99.90
46378;DHT22;32083;47.360;9.650;2024-01-30T16:00:31;5.50;99.90
46378;DHT22;32083;47.360;9.650;2024-01-30T16:02:57;5.50;99.90
46378;DHT22;32083;47.360;9.650;2024-01-30T16:05:24;5.50;99.90
46378;DHT22;32083;47.360;9.650;2024-01-30T16:07:50;5.40;99.90
46378;DHT22;32083;47.360;9.650;2024-01-30T16:10:16;5.40;99.90
46378;DHT22;32083;47.360;9.650;2024-01-30T16:12:43;5.40;99.90
46378;DHT22;32083;47.360;9.650;2024-01-30T16:15:13;5.30;99.90
46378;DHT22;32083;47.360;9.650;2024-01-30T16:17:40;5.30;99.90
46378;DHT22;32083;47.360;9.650;2024-01-30T16:20:07;5.30;99.90
46378;DHT22;32083;47.360;9.650;2024-01-30T16:22:34;5.30;99.90
46378;DHT22;32083;47.360;9.650;2024-01-30T16:25:02;5.20;99.90
46378;DHT22;32083;47.360;9.650;2024-01-30T16:27:28;5.20;99.90
46378;DHT22;32083;47.360;9.650;2024-01-30T16:29:54;5.20;99.90
46378;DHT22;32083;47.360;9.650;2024-01-30T16:32:20;5.20;99.90
46378;DHT22;32083;47.360;9.650;2024-01-30T16:34:46;5.10;99.90
46378;DHT22;32083;47.360;9.650;2024-01-30T16:37:12;5.10;99.90
46378;DHT22;32083;47.360;9.650;2024-01-30T16:39:38;5.10;99.90
46378;DHT22;32083;47.360;9.650;2024-01-30T16:42:04;5.00;99.90
46378;DHT22;32083;47.360;9.650;2024-01-30T16:44:32;5.00;99.90
46378;DHT22;32083;47.360;9.650;2024-01-30T16:46:59;4.90;99.90
46378;DHT22;32083;47.360;9.650;2024-01-30T16:49:25;4.90;99.90
46378;DHT22;32083;47.360;9.650;2024-01-30T16:51:51;4.90;99.90
46378;DHT22;32083;47.360;9.650;2024-01-30T16:54:17;4.90;99.90
46378;DHT22;32083;47.360;9.650;2024-01-30T16:56:43;4.90;99.90
46378;DHT22;32083;47.360;9.650;2024-01-30T16:59:17;4.90;99.90
46378;DHT22;32083;47.360;9.650;2024-01-30T17:01:43;4.80;99.90
46378;DHT22;32083;47.360;9.650;2024-01-30T17:04:15;4.80;99.90
46378;DHT22;32083;47.360;9.650;2024-01-30T17:06:49;4.80;99.90
46378;DHT22;32083;47.360;9.650;2024-01-30T17:09:17;4.80;99.90
46378;DHT22;32083;47.360;9.650;2024-01-30T17:11:43;4.80;99.90
46378;DHT22;32083;47.360;9.650;2024-01-30T17:14:09;4.70;99.90
46378;DHT22;32083;47.360;9.650;2024-01-30T17:16:37;4.70;99.90
46378;DHT22;32083;47.360;9.650;2024-01-30T17:19:05;4.70;99.90
46378;DHT22;32083;47.360;9.650;2024-01-30T17:21:31;4.60;99.90
46378;DHT22;32083;47.360;9.650;2024-01-30T17:24:01;4.60;99.90
46378;DHT22;32083;47.360;9.650;2024-01-30T17:26:27;4.60;99.90
46378;DHT22;32083;47.360;9.650;2024-01-30T17:28:53;4.60;99.90
46378;DHT22;32083;47.360;9.650;2024-01-30T17:31:19;4.60;99.90
46378;DHT22;32083;47.360;9.650;2024-01-30T17:33:45;4.60;99.90
46378;DHT22;32083;47.360;9.650;2024-01-30T17:36:11;4.60;99.90
46378;DHT22;32083;47.360;9.650;2024-01-30T17:38:39;4.60;99.90
46378;DHT22;32083;47.360;9.650;2024-01-30T17:41:05;4.60;99.90
46378;DHT22;32083;47.360;9.650;2024-01-30T17:43:31;4.50;99.90
46378;DHT22;32083;47.360;9.650;2024-01-30T17:45:57;4.60;99.90
46378;DHT22;32083;47.360;9.650;2024-01-30T17:48:25;4.60;99.90
46378;DHT22;32083;47.360;9.650;2024-01-30T17:50:51;4.60;99.90
46378;DHT22;32083;47.360;9.650;2024-01-30T17:53:17;4.60;99.90
46378;DHT22;32083;47.360;9.650;2024-01-30T17:55:43;4.60;99.90
46378;DHT22;32083;47.360;9.650;2024-01-30T17:58:09;4.60;99.90
46378;DHT22;32083;47.360;9.650;2024-01-30T18:00:35;4.50;99.90
46378;DHT22;32083;47.360;9.650;2024-01-30T18:03:01;4.50;99.90
46378;DHT22;32083;47.360;9.650;2024-01-30T18:05:29;4.50;99.90
46378;DHT22;32083;47.360;9.650;2024-01-30T18:07:56;4.50;99.90
46378;DHT22;32083;47.360;9.650;2024-01-30T18:10:22;4.50;99.90
46378;DHT22;32083;47.360;9.650;2024-01-30T18:12:48;4.40;99.90
46378;DHT22;32083;47.360;9.650;2024-01-30T18:15:14;4.40;99.90
46378;DHT22;32083;47.360;9.650;2024-01-30T18:17:40;4.40;99.90
46378;DHT22;32083;47.360;9.650;2024-01-30T18:20:06;4.40;99.90
46378;DHT22;32083;47.360;9.650;2024-01-30T18:22:33;4.40;99.90
46378;DHT22;32083;47.360;9.650;2024-01-30T18:24:59;4.40;99.90
46378;DHT22;32083;47.360;9.650;2024-01-30T18:27:25;4.40;99.90
46378;DHT22;32083;47.360;9.650;2024-01-30T18:29:52;4.40;99.90
46378;DHT22;32083;47.360;9.650;2024-01-30T18:32:18;4.40;99.90
46378;DHT22;32083;47.360;9.650;2024-01-30T18:34:44;4.40;99.90
46378;DHT22;32083;47.360;9.650;2024-01-30T18:37:10;4.30;99.90
46378;DHT22;32083;47.360;9.650;2024-01-30T18:39:36;4.30;99.90
46378;DHT22;32083;47.360;9.650;2024-01-30T18:42:04;4.30;99.90
46378;DHT22;32083;47.360;9.650;2024-01-30T18:44:30;4.20;99.90
46378;DHT22;32083;47.360;9.650;2024-01-30T18:46:56;4.20;99.90
46378;DHT22;32083;47.360;9.650;2024-01-30T18:49:22;4.20;99.90
46378;DHT22;32083;47.360;9.650;2024-01-30T18:51:49;4.10;99.90
46378;DHT22;32083;47.360;9.650;2024-01-30T18:54:20;4.10;99.90
46378;DHT22;32083;47.360;9.650;2024-01-30T18:56:46;4.10;99.90
46378;DHT22;32083;47.360;9.650;2024-01-30T18:59:12;4.10;99.90